sensor_id;sensor_type;location;lat;lon;timestamp;pressure;altitude;pressure_sealevel;temperature;humidity
58245;BME280;44550;43.864;25.986;2022-08-18T00:02:43;100499.22;;;25.91;57.40
58245;BME280;44550;43.864;25.986;2022-08-18T00:06:58;100476.50;;;25.52;58.10
58245;BME280;44550;43.864;25.986;2022-08-18T00:11:00;100511.63;;;25.62;58.22
58245;BME280;44550;43.864;25.986;2022-08-18T00:15:01;100510.28;;;25.55;58.07
58245;BME280;44550;43.864;25.986;2022-08-18T00:19:02;100515.41;;;25.44;58.07
58245;BME280;44550;43.864;25.986;2022-08-18T00:23:09;100523.28;;;25.47;57.86
58245;BME280;44550;43.864;25.986;2022-08-18T00:27:12;100527.63;;;25.64;57.20
58245;BME280;44550;43.864;25.986;2022-08-18T00:31:13;100526.00;;;25.75;56.91
58245;BME280;44550;43.864;25.986;2022-08-18T00:35:16;100522.81;;;25.85;56.50
58245;BME280;44550;43.864;25.986;2022-08-18T00:39:19;100526.47;;;25.84;56.77
58245;BME280;44550;43.864;25.986;2022-08-18T00:43:31;100535.56;;;25.95;56.63
58245;BME280;44550;43.864;25.986;2022-08-18T00:47:35;100530.81;;;26.15;56.02
58245;BME280;44550;43.864;25.986;2022-08-18T00:51:43;100535.97;;;26.32;55.42
58245;BME280;44550;43.864;25.986;2022-08-18T00:55:45;100527.47;;;26.40;55.14
58245;BME280;44550;43.864;25.986;2022-08-18T01:00:00;100536.56;;;26.37;55.09
58245;BME280;44550;43.864;25.986;2022-08-18T01:04:10;100535.13;;;26.32;55.09
58245;BME280;44550;43.864;25.986;2022-08-18T01:08:13;100532.56;;;26.30;55.49
58245;BME280;44550;43.864;25.986;2022-08-18T01:12:29;100525.81;;;26.09;56.41
58245;BME280;44550;43.864;25.986;2022-08-18T01:16:49;100496.69;;;25.44;57.92
58245;BME280;44550;43.864;25.986;2022-08-18T01:21:14;100535.47;;;25.37;58.78
58245;BME280;44550;43.864;25.986;2022-08-18T01:25:33;100522.63;;;25.12;59.43
58245;BME280;44550;43.864;25.986;2022-08-18T01:29:52;100538.91;;;25.23;59.71
58245;BME280;44550;43.864;25.986;2022-08-18T01:33:51;100523.53;;;25.26;59.42
58245;BME280;44550;43.864;25.986;2022-08-18T01:37:54;100515.66;;;25.39;59.20
58245;BME280;44550;43.864;25.986;2022-08-18T01:41:56;100516.31;;;25.59;58.46
58245;BME280;44550;43.864;25.986;2022-08-18T01:45:57;100483.88;;;25.49;58.50
58245;BME280;44550;43.864;25.986;2022-08-18T01:49:57;100517.59;;;25.97;57.60
58245;BME280;44550;43.864;25.986;2022-08-18T01:53:57;100519.03;;;26.17;56.85
58245;BME280;44550;43.864;25.986;2022-08-18T01:58:00;100513.69;;;26.32;56.36
58245;BME280;44550;43.864;25.986;2022-08-18T02:02:00;100539.13;;;26.82;55.14
58245;BME280;44550;43.864;25.986;2022-08-18T02:06:06;100544.94;;;27.17;53.87
58245;BME280;44550;43.864;25.986;2022-08-18T02:10:11;100545.78;;;27.32;55.33
58245;BME280;44550;43.864;25.986;2022-08-18T02:14:30;100555.09;;;27.12;57.40
58245;BME280;44550;43.864;25.986;2022-08-18T02:18:34;100560.94;;;27.04;58.19
58245;BME280;44550;43.864;25.986;2022-08-18T02:22:45;100560.78;;;26.93;59.25
58245;BME280;44550;43.864;25.986;2022-08-18T02:26:46;100565.50;;;26.89;59.02
58245;BME280;44550;43.864;25.986;2022-08-18T02:30:47;100560.78;;;26.93;58.69
58245;BME280;44550;43.864;25.986;2022-08-18T02:34:47;100550.44;;;26.87;58.58
58245;BME280;44550;43.864;25.986;2022-08-18T02:38:47;100566.25;;;26.91;58.56
58245;BME280;44550;43.864;25.986;2022-08-18T02:42:56;100551.41;;;26.71;58.55
58245;BME280;44550;43.864;25.986;2022-08-18T02:46:59;100533.06;;;26.51;58.48
58245;BME280;44550;43.864;25.986;2022-08-18T02:51:00;100574.03;;;26.67;58.33
58245;BME280;44550;43.864;25.986;2022-08-18T02:55:01;100543.09;;;26.33;58.62
58245;BME280;44550;43.864;25.986;2022-08-18T02:59:04;100593.44;;;26.28;59.75
58245;BME280;44550;43.864;25.986;2022-08-18T03:03:07;100588.06;;;26.14;60.27
58245;BME280;44550;43.864;25.986;2022-08-18T03:07:07;100587.94;;;26.01;60.51
58245;BME280;44550;43.864;25.986;2022-08-18T03:11:07;100598.88;;;25.82;61.14
58245;BME280;44550;43.864;25.986;2022-08-18T03:15:08;100607.56;;;25.86;61.50
58245;BME280;44550;43.864;25.986;2022-08-18T03:19:11;100595.31;;;25.82;61.14
58245;BME280;44550;43.864;25.986;2022-08-18T03:23:12;100599.59;;;25.54;61.66
58245;BME280;44550;43.864;25.986;2022-08-18T03:27:13;100619.03;;;25.42;62.23
58245;BME280;44550;43.864;25.986;2022-08-18T03:31:14;100593.50;;;25.20;62.78
58245;BME280;44550;43.864;25.986;2022-08-18T03:35:16;100622.31;;;25.47;62.19
58245;BME280;44550;43.864;25.986;2022-08-18T03:39:17;100623.53;;;25.41;62.51
58245;BME280;44550;43.864;25.986;2022-08-18T03:43:19;100621.03;;;25.38;62.72
58245;BME280;44550;43.864;25.986;2022-08-18T03:47:39;100616.91;;;25.17;63.57
58245;BME280;44550;43.864;25.986;2022-08-18T03:51:45;100621.34;;;25.16;63.87
58245;BME280;44550;43.864;25.986;2022-08-18T03:55:47;100623.66;;;25.06;64.32
58245;BME280;44550;43.864;25.986;2022-08-18T03:59:47;100629.59;;;24.96;64.69
58245;BME280;44550;43.864;25.986;2022-08-18T04:03:50;100630.81;;;24.90;64.85
58245;BME280;44550;43.864;25.986;2022-08-18T04:07:53;100633.38;;;25.25;64.68
58245;BME280;44550;43.864;25.986;2022-08-18T04:11:54;100635.94;;;25.58;63.26
58245;BME280;44550;43.864;25.986;2022-08-18T04:15:58;100620.91;;;25.55;63.21
58245;BME280;44550;43.864;25.986;2022-08-18T04:19:57;100623.47;;;25.89;62.38
58245;BME280;44550;43.864;25.986;2022-08-18T04:24:00;100619.31;;;26.43;60.71
58245;BME280;44550;43.864;25.986;2022-08-18T04:28:01;100643.97;;;27.07;57.93
58245;BME280;44550;43.864;25.986;2022-08-18T04:32:03;100634.69;;;27.13;57.73
58245;BME280;44550;43.864;25.986;2022-08-18T04:36:08;100610.41;;;27.00;57.69
58245;BME280;44550;43.864;25.986;2022-08-18T04:40:16;100635.97;;;27.49;56.75
58245;BME280;44550;43.864;25.986;2022-08-18T04:44:21;100608.50;;;27.85;55.86
58245;BME280;44550;43.864;25.986;2022-08-18T04:48:21;100647.44;;;29.09;53.66
58245;BME280;44550;43.864;25.986;2022-08-18T04:52:21;100659.00;;;29.95;49.42
58245;BME280;44550;43.864;25.986;2022-08-18T04:56:40;100657.75;;;30.70;47.76
58245;BME280;44550;43.864;25.986;2022-08-18T05:00:40;100655.25;;;31.68;45.26
58245;BME280;44550;43.864;25.986;2022-08-18T05:04:42;100642.84;;;32.30;43.51
58245;BME280;44550;43.864;25.986;2022-08-18T05:08:43;100647.97;;;32.75;42.20
58245;BME280;44550;43.864;25.986;2022-08-18T05:12:46;100605.34;;;33.08;40.33
58245;BME280;44550;43.864;25.986;2022-08-18T05:16:46;100636.31;;;32.54;41.07
58245;BME280;44550;43.864;25.986;2022-08-18T05:37:55;100653.44;;;32.01;41.88
58245;BME280;44550;43.864;25.986;2022-08-18T05:42:02;100651.22;;;31.63;42.88
58245;BME280;44550;43.864;25.986;2022-08-18T05:46:05;100604.34;;;31.52;42.07
58245;BME280;44550;43.864;25.986;2022-08-18T05:50:08;100650.34;;;31.62;42.74
58245;BME280;44550;43.864;25.986;2022-08-18T05:54:11;100662.06;;;31.51;43.34
58245;BME280;44550;43.864;25.986;2022-08-18T05:58:31;100666.59;;;31.51;43.04
58245;BME280;44550;43.864;25.986;2022-08-18T06:02:35;100666.97;;;32.01;43.00
58245;BME280;44550;43.864;25.986;2022-08-18T06:06:37;100667.63;;;32.46;41.40
58245;BME280;44550;43.864;25.986;2022-08-18T06:10:47;100667.72;;;32.45;41.99
58245;BME280;44550;43.864;25.986;2022-08-18T06:14:47;100672.53;;;32.83;40.85
58245;BME280;44550;43.864;25.986;2022-08-18T06:18:49;100663.22;;;32.34;41.79
58245;BME280;44550;43.864;25.986;2022-08-18T06:23:01;100659.06;;;32.09;41.69
58245;BME280;44550;43.864;25.986;2022-08-18T06:27:09;100679.94;;;31.75;42.87
58245;BME280;44550;43.864;25.986;2022-08-18T06:31:11;100627.31;;;30.68;44.74
58245;BME280;44550;43.864;25.986;2022-08-18T06:35:18;100683.47;;;30.40;46.01
58245;BME280;44550;43.864;25.986;2022-08-18T06:39:28;100689.41;;;29.98;47.50
58245;BME280;44550;43.864;25.986;2022-08-18T06:43:38;100691.13;;;29.99;47.73
58245;BME280;44550;43.864;25.986;2022-08-18T06:47:46;100688.50;;;30.45;46.58
58245;BME280;44550;43.864;25.986;2022-08-18T07:01:32;100693.66;;;31.17;44.21
58245;BME280;44550;43.864;25.986;2022-08-18T07:05:35;100691.41;;;31.22;44.00
58245;BME280;44550;43.864;25.986;2022-08-18T07:09:36;100682.63;;;31.75;43.45
58245;BME280;44550;43.864;25.986;2022-08-18T07:13:39;100688.84;;;32.51;41.62
58245;BME280;44550;43.864;25.986;2022-08-18T07:17:47;100684.97;;;32.44;40.70
58245;BME280;44550;43.864;25.986;2022-08-18T07:22:01;100686.75;;;32.75;40.40
58245;BME280;44550;43.864;25.986;2022-08-18T07:26:08;100685.16;;;33.25;39.88
58245;BME280;44550;43.864;25.986;2022-08-18T07:30:23;100685.91;;;33.46;39.11
58245;BME280;44550;43.864;25.986;2022-08-18T07:34:41;100684.28;;;33.84;38.04
58245;BME280;44550;43.864;25.986;2022-08-18T07:38:57;100663.16;;;33.58;37.92
58245;BME280;44550;43.864;25.986;2022-08-18T07:43:01;100687.28;;;33.71;38.13
58245;BME280;44550;43.864;25.986;2022-08-18T07:47:12;100686.72;;;33.97;38.83
58245;BME280;44550;43.864;25.986;2022-08-18T07:51:21;100687.75;;;34.34;37.79
58245;BME280;44550;43.864;25.986;2022-08-18T07:55:30;100657.75;;;34.07;37.94
58245;BME280;44550;43.864;25.986;2022-08-18T07:59:34;100693.84;;;34.46;36.40
58245;BME280;44550;43.864;25.986;2022-08-18T08:03:51;100674.75;;;34.09;36.93
58245;BME280;44550;43.864;25.986;2022-08-18T08:08:52;100687.28;;;33.81;37.50
58245;BME280;44550;43.864;25.986;2022-08-18T08:13:00;100682.75;;;33.41;38.25
58245;BME280;44550;43.864;25.986;2022-08-18T08:17:12;100687.81;;;33.55;38.32
58245;BME280;44550;43.864;25.986;2022-08-18T08:21:30;100682.41;;;33.94;37.64
58245;BME280;44550;43.864;25.986;2022-08-18T08:25:59;100676.06;;;34.05;37.15
58245;BME280;44550;43.864;25.986;2022-08-18T08:30:06;100683.88;;;33.98;36.70
58245;BME280;44550;43.864;25.986;2022-08-18T08:34:15;100684.72;;;33.29;37.55
58245;BME280;44550;43.864;25.986;2022-08-18T08:38:21;100681.13;;;32.67;39.72
58245;BME280;44550;43.864;25.986;2022-08-18T08:42:51;100684.09;;;32.64;39.68
58245;BME280;44550;43.864;25.986;2022-08-18T14:45:44;100431.25;;;33.25;36.44
58245;BME280;44550;43.864;25.986;2022-08-18T14:49:58;100415.84;;;33.06;36.75
58245;BME280;44550;43.864;25.986;2022-08-18T14:53:58;100422.69;;;33.10;36.64
58245;BME280;44550;43.864;25.986;2022-08-18T14:58:06;100418.84;;;33.13;36.64
58245;BME280;44550;43.864;25.986;2022-08-18T15:02:21;100400.16;;;33.19;37.12
58245;BME280;44550;43.864;25.986;2022-08-18T15:06:24;100363.25;;;32.99;37.03
58245;BME280;44550;43.864;25.986;2022-08-18T15:10:24;100400.72;;;33.23;36.84
58245;BME280;44550;43.864;25.986;2022-08-18T15:14:25;100372.34;;;32.98;36.75
58245;BME280;44550;43.864;25.986;2022-08-18T15:19:01;100391.88;;;32.92;37.76
58245;BME280;44550;43.864;25.986;2022-08-18T15:23:22;100421.69;;;32.92;38.28
58245;BME280;44550;43.864;25.986;2022-08-18T15:27:39;100419.94;;;32.91;38.88
58245;BME280;44550;43.864;25.986;2022-08-18T15:31:40;100368.34;;;32.73;38.83
58245;BME280;44550;43.864;25.986;2022-08-18T15:35:49;100376.31;;;32.94;39.06
58245;BME280;44550;43.864;25.986;2022-08-18T15:39:58;100420.41;;;33.35;38.80
58245;BME280;44550;43.864;25.986;2022-08-18T15:44:03;100424.66;;;33.37;39.41
58245;BME280;44550;43.864;25.986;2022-08-18T15:48:05;100425.25;;;33.51;38.75
58245;BME280;44550;43.864;25.986;2022-08-18T15:52:15;100418.13;;;33.50;37.97
58245;BME280;44550;43.864;25.986;2022-08-18T15:56:18;100427.53;;;33.45;37.73
58245;BME280;44550;43.864;25.986;2022-08-18T16:00:18;100428.69;;;33.14;38.24
58245;BME280;44550;43.864;25.986;2022-08-18T16:04:28;100430.78;;;32.91;38.78
58245;BME280;44550;43.864;25.986;2022-08-18T16:08:46;100402.69;;;32.63;39.18
58245;BME280;44550;43.864;25.986;2022-08-18T16:13:07;100428.91;;;32.62;39.59
58245;BME280;44550;43.864;25.986;2022-08-18T16:17:25;100445.16;;;32.72;39.84
58245;BME280;44550;43.864;25.986;2022-08-18T16:21:32;100451.72;;;32.69;39.69
58245;BME280;44550;43.864;25.986;2022-08-18T16:25:39;100451.44;;;32.72;39.34
58245;BME280;44550;43.864;25.986;2022-08-18T16:29:39;100439.31;;;32.67;39.15
58245;BME280;44550;43.864;25.986;2022-08-18T16:33:39;100456.00;;;32.72;39.57
58245;BME280;44550;43.864;25.986;2022-08-18T16:37:46;100459.25;;;32.66;39.88
58245;BME280;44550;43.864;25.986;2022-08-18T16:41:50;100443.28;;;32.53;40.25
58245;BME280;44550;43.864;25.986;2022-08-18T16:45:50;100462.06;;;32.55;40.17
58245;BME280;44550;43.864;25.986;2022-08-18T16:49:52;100450.88;;;32.28;40.10
58245;BME280;44550;43.864;25.986;2022-08-18T16:54:02;100436.06;;;32.02;40.01
58245;BME280;44550;43.864;25.986;2022-08-18T17:03:34;100467.06;;;31.98;40.28
58245;BME280;44550;43.864;25.986;2022-08-18T17:07:53;100491.88;;;32.03;40.35
58245;BME280;44550;43.864;25.986;2022-08-18T17:12:05;100483.63;;;32.04;40.22
58245;BME280;44550;43.864;25.986;2022-08-18T17:16:39;100492.00;;;32.01;40.16
58245;BME280;44550;43.864;25.986;2022-08-18T17:20:46;100472.22;;;31.80;40.48
58245;BME280;44550;43.864;25.986;2022-08-18T17:24:46;100474.00;;;31.70;40.59
58245;BME280;44550;43.864;25.986;2022-08-18T18:04:11;100532.50;;;30.84;43.27
58245;BME280;44550;43.864;25.986;2022-08-18T18:09:28;100545.84;;;30.74;43.75
58245;BME280;44550;43.864;25.986;2022-08-18T18:22:32;100553.72;;;30.43;44.57
58245;BME280;44550;43.864;25.986;2022-08-18T18:26:32;100552.97;;;30.30;44.49
58245;BME280;44550;43.864;25.986;2022-08-18T18:44:28;100565.91;;;30.14;44.36
58245;BME280;44550;43.864;25.986;2022-08-18T18:56:00;100591.28;;;30.11;43.36
58245;BME280;44550;43.864;25.986;2022-08-18T18:59:51;100592.38;;;30.09;43.38
58245;BME280;44550;43.864;25.986;2022-08-18T19:11:35;100607.06;;;29.93;43.41
58245;BME280;44550;43.864;25.986;2022-08-18T19:22:18;100606.25;;;29.80;43.38
58245;BME280;44550;43.864;25.986;2022-08-18T19:39:22;100590.66;;;29.72;43.64
58245;BME280;44550;43.864;25.986;2022-08-18T21:29:10;100643.19;;;26.48;61.50
58245;BME280;44550;43.864;25.986;2022-08-18T22:58:53;100621.47;;;26.96;56.60
